sensor_id;sensor_type;location;lat;lon;timestamp;P1;durP1;ratioP1;P2;durP2;ratioP2
65182;SDS011;51771;51.068;-1.780;2022-08-24T07:32:35;3.25;;;1.20;;
65182;SDS011;51771;51.068;-1.780;2022-08-24T07:35:00;3.22;;;1.35;;
65182;SDS011;51771;51.068;-1.780;2022-08-24T07:37:26;4.30;;;1.48;;
65182;SDS011;51771;51.068;-1.780;2022-08-24T07:39:51;4.97;;;1.33;;
65182;SDS011;51771;51.068;-1.780;2022-08-24T07:42:16;1.98;;;1.17;;
65182;SDS011;51771;51.068;-1.780;2022-08-24T07:44:42;3.05;;;1.40;;
65182;SDS011;51771;51.068;-1.780;2022-08-24T07:47:07;1.65;;;0.88;;
65182;SDS011;51771;51.068;-1.780;2022-08-24T07:49:32;3.75;;;1.33;;
65182;SDS011;51771;51.068;-1.780;2022-08-24T07:51:58;3.20;;;1.07;;
65182;SDS011;51771;51.068;-1.780;2022-08-24T07:54:23;8.48;;;1.88;;
65182;SDS011;51771;51.068;-1.780;2022-08-24T07:56:48;2.63;;;1.20;;
65182;SDS011;51771;51.068;-1.780;2022-08-24T07:59:14;3.85;;;1.60;;
65182;SDS011;51771;51.068;-1.780;2022-08-24T08:01:39;4.13;;;1.27;;
65182;SDS011;51771;51.068;-1.780;2022-08-24T08:04:05;1.63;;;1.10;;
65182;SDS011;51771;51.068;-1.780;2022-08-24T08:06:30;3.03;;;1.30;;
65182;SDS011;51771;51.068;-1.780;2022-08-24T08:08:55;3.60;;;1.95;;
65182;SDS011;51771;51.068;-1.780;2022-08-24T08:11:21;1.27;;;0.70;;
65182;SDS011;51771;51.068;-1.780;2022-08-24T08:13:47;3.00;;;1.42;;
65182;SDS011;51771;51.068;-1.780;2022-08-24T08:16:12;2.17;;;1.37;;
65182;SDS011;51771;51.068;-1.780;2022-08-24T08:18:37;4.53;;;1.13;;
65182;SDS011;51771;51.068;-1.780;2022-08-24T08:21:03;2.23;;;0.93;;
65182;SDS011;51771;51.068;-1.780;2022-08-24T08:23:28;2.15;;;1.08;;
65182;SDS011;51771;51.068;-1.780;2022-08-24T08:26:13;1.33;;;1.10;;
65182;SDS011;51771;51.068;-1.780;2022-08-24T08:28:39;5.25;;;0.75;;
65182;SDS011;51771;51.068;-1.780;2022-08-24T08:31:06;3.92;;;1.20;;
65182;SDS011;51771;51.068;-1.780;2022-08-24T08:33:31;2.80;;;1.10;;
65182;SDS011;51771;51.068;-1.780;2022-08-24T08:36:07;4.40;;;1.40;;
65182;SDS011;51771;51.068;-1.780;2022-08-24T08:38:33;8.30;;;1.00;;
65182;SDS011;51771;51.068;-1.780;2022-08-24T08:43:39;4.47;;;1.77;;
65182;SDS011;51771;51.068;-1.780;2022-08-24T08:46:14;9.45;;;2.05;;
65182;SDS011;51771;51.068;-1.780;2022-08-24T08:54:12;2.03;;;1.20;;
65182;SDS011;51771;51.068;-1.780;2022-08-24T08:56:41;2.53;;;1.05;;
65182;SDS011;51771;51.068;-1.780;2022-08-24T08:59:17;5.60;;;1.10;;
65182;SDS011;51771;51.068;-1.780;2022-08-24T09:07:02;4.47;;;1.10;;
65182;SDS011;51771;51.068;-1.780;2022-08-24T09:11:59;2.10;;;0.87;;
65182;SDS011;51771;51.068;-1.780;2022-08-24T09:24:32;1.90;;;0.70;;
65182;SDS011;51771;51.068;-1.780;2022-08-24T09:30:03;2.28;;;1.02;;
65182;SDS011;51771;51.068;-1.780;2022-08-24T09:35:14;0.65;;;0.65;;
65182;SDS011;51771;51.068;-1.780;2022-08-24T09:40:34;3.03;;;0.93;;
65182;SDS011;51771;51.068;-1.780;2022-08-24T10:00:46;1.80;;;0.95;;
65182;SDS011;51771;51.068;-1.780;2022-08-24T10:03:23;1.33;;;0.90;;
65182;SDS011;51771;51.068;-1.780;2022-08-24T10:06:12;1.83;;;0.90;;
65182;SDS011;51771;51.068;-1.780;2022-08-24T10:16:15;2.57;;;0.70;;
65182;SDS011;51771;51.068;-1.780;2022-08-24T10:24:08;0.30;;;0.30;;
65182;SDS011;51771;51.068;-1.780;2022-08-24T10:36:54;1.90;;;0.77;;
65182;SDS011;51771;51.068;-1.780;2022-08-24T10:47:35;0.40;;;0.40;;
65182;SDS011;51771;51.068;-1.780;2022-08-24T10:55:15;0.40;;;0.40;;
65182;SDS011;51771;51.068;-1.780;2022-08-24T10:57:56;2.35;;;0.60;;
65182;SDS011;51771;51.068;-1.780;2022-08-24T11:00:27;0.47;;;0.47;;
65182;SDS011;51771;51.068;-1.780;2022-08-24T11:05:33;0.52;;;0.52;;
65182;SDS011;51771;51.068;-1.780;2022-08-24T11:08:01;7.32;;;0.55;;
65182;SDS011;51771;51.068;-1.780;2022-08-24T11:10:29;0.98;;;0.68;;
65182;SDS011;51771;51.068;-1.780;2022-08-24T11:12:55;1.13;;;0.43;;
65182;SDS011;51771;51.068;-1.780;2022-08-24T11:15:37;0.50;;;0.50;;
65182;SDS011;51771;51.068;-1.780;2022-08-24T11:18:10;1.25;;;0.35;;
65182;SDS011;51771;51.068;-1.780;2022-08-24T11:20:40;0.47;;;0.47;;
65182;SDS011;51771;51.068;-1.780;2022-08-24T11:23:13;1.05;;;0.50;;
65182;SDS011;51771;51.068;-1.780;2022-08-24T11:28:05;1.02;;;0.40;;
65182;SDS011;51771;51.068;-1.780;2022-08-24T11:30:33;1.90;;;0.55;;
65182;SDS011;51771;51.068;-1.780;2022-08-24T11:33:02;0.60;;;0.40;;
65182;SDS011;51771;51.068;-1.780;2022-08-24T11:40:38;0.60;;;0.43;;
65182;SDS011;51771;51.068;-1.780;2022-08-24T11:43:09;0.47;;;0.47;;
65182;SDS011;51771;51.068;-1.780;2022-08-24T11:48:05;0.30;;;0.30;;
65182;SDS011;51771;51.068;-1.780;2022-08-24T11:55:23;2.23;;;0.60;;
65182;SDS011;51771;51.068;-1.780;2022-08-24T11:57:56;0.75;;;0.75;;
65182;SDS011;51771;51.068;-1.780;2022-08-24T12:00:23;0.85;;;0.60;;
65182;SDS011;51771;51.068;-1.780;2022-08-24T12:08:14;2.85;;;0.52;;
65182;SDS011;51771;51.068;-1.780;2022-08-24T12:13:19;1.13;;;0.60;;
65182;SDS011;51771;51.068;-1.780;2022-08-24T12:15:50;0.50;;;0.50;;
65182;SDS011;51771;51.068;-1.780;2022-08-24T12:20:42;4.13;;;0.60;;
65182;SDS011;51771;51.068;-1.780;2022-08-24T12:25:43;0.60;;;0.60;;
65182;SDS011;51771;51.068;-1.780;2022-08-24T12:28:43;0.52;;;0.52;;
65182;SDS011;51771;51.068;-1.780;2022-08-24T12:33:35;8.93;;;1.02;;
65182;SDS011;51771;51.068;-1.780;2022-08-24T12:36:02;1.10;;;0.63;;
65182;SDS011;51771;51.068;-1.780;2022-08-24T12:41:01;8.20;;;0.90;;
65182;SDS011;51771;51.068;-1.780;2022-08-24T12:45:56;0.38;;;0.38;;
65182;SDS011;51771;51.068;-1.780;2022-08-24T12:48:34;11.35;;;0.70;;
65182;SDS011;51771;51.068;-1.780;2022-08-24T13:01:28;3.00;;;0.50;;
65182;SDS011;51771;51.068;-1.780;2022-08-24T13:06:39;1.35;;;1.25;;
65182;SDS011;51771;51.068;-1.780;2022-08-24T13:09:07;1.35;;;0.43;;
65182;SDS011;51771;51.068;-1.780;2022-08-24T13:11:33;1.98;;;1.00;;
65182;SDS011;51771;51.068;-1.780;2022-08-24T13:19:16;0.40;;;0.40;;
65182;SDS011;51771;51.068;-1.780;2022-08-24T13:21:44;0.65;;;0.65;;
65182;SDS011;51771;51.068;-1.780;2022-08-24T13:24:54;1.08;;;0.70;;
65182;SDS011;51771;51.068;-1.780;2022-08-24T13:29:35;0.82;;;0.60;;
65182;SDS011;51771;51.068;-1.780;2022-08-24T13:32:02;1.23;;;0.63;;
65182;SDS011;51771;51.068;-1.780;2022-08-24T13:34:39;2.00;;;0.70;;
65182;SDS011;51771;51.068;-1.780;2022-08-24T13:57:44;0.80;;;0.50;;
65182;SDS011;51771;51.068;-1.780;2022-08-24T14:11:05;0.57;;;0.57;;
65182;SDS011;51771;51.068;-1.780;2022-08-24T14:19:59;0.52;;;0.52;;
65182;SDS011;51771;51.068;-1.780;2022-08-24T14:22:02;7.70;;;0.50;;
65182;SDS011;51771;51.068;-1.780;2022-08-24T14:24:35;0.57;;;0.50;;
65182;SDS011;51771;51.068;-1.780;2022-08-24T14:27:03;0.50;;;0.50;;
65182;SDS011;51771;51.068;-1.780;2022-08-24T14:36:57;0.63;;;0.50;;
65182;SDS011;51771;51.068;-1.780;2022-08-24T14:55:18;0.28;;;0.22;;
65182;SDS011;51771;51.068;-1.780;2022-08-24T15:00:13;3.20;;;0.53;;
65182;SDS011;51771;51.068;-1.780;2022-08-24T15:10:23;0.50;;;0.30;;
65182;SDS011;51771;51.068;-1.780;2022-08-24T15:12:58;1.00;;;0.40;;
65182;SDS011;51771;51.068;-1.780;2022-08-24T15:15:34;4.10;;;0.40;;
65182;SDS011;51771;51.068;-1.780;2022-08-24T15:18:02;0.55;;;0.30;;
65182;SDS011;51771;51.068;-1.780;2022-08-24T15:23:03;1.40;;;0.57;;
65182;SDS011;51771;51.068;-1.780;2022-08-24T15:28:46;0.70;;;0.70;;
65182;SDS011;51771;51.068;-1.780;2022-08-24T15:30:52;0.40;;;0.40;;
65182;SDS011;51771;51.068;-1.780;2022-08-24T15:33:17;0.40;;;0.40;;
65182;SDS011;51771;51.068;-1.780;2022-08-24T15:35:44;0.95;;;0.52;;
65182;SDS011;51771;51.068;-1.780;2022-08-24T15:38:17;1.75;;;0.60;;
65182;SDS011;51771;51.068;-1.780;2022-08-24T15:40:44;0.70;;;0.63;;
65182;SDS011;51771;51.068;-1.780;2022-08-24T15:43:10;0.93;;;0.60;;
65182;SDS011;51771;51.068;-1.780;2022-08-24T15:45:36;0.50;;;0.50;;
65182;SDS011;51771;51.068;-1.780;2022-08-24T15:48:02;1.48;;;0.70;;
65182;SDS011;51771;51.068;-1.780;2022-08-24T15:50:39;2.88;;;0.63;;
65182;SDS011;51771;51.068;-1.780;2022-08-24T15:53:06;14.35;;;0.70;;
65182;SDS011;51771;51.068;-1.780;2022-08-24T15:55:34;0.40;;;0.40;;
65182;SDS011;51771;51.068;-1.780;2022-08-24T16:08:49;1.02;;;0.65;;
65182;SDS011;51771;51.068;-1.780;2022-08-24T16:11:20;3.92;;;0.50;;
65182;SDS011;51771;51.068;-1.780;2022-08-24T16:13:49;0.47;;;0.47;;
65182;SDS011;51771;51.068;-1.780;2022-08-24T16:16:15;0.57;;;0.57;;
65182;SDS011;51771;51.068;-1.780;2022-08-24T16:21:11;0.57;;;0.57;;
65182;SDS011;51771;51.068;-1.780;2022-08-24T16:23:37;2.28;;;0.70;;
65182;SDS011;51771;51.068;-1.780;2022-08-24T16:28:48;0.50;;;0.30;;
65182;SDS011;51771;51.068;-1.780;2022-08-24T16:31:14;3.05;;;0.60;;
65182;SDS011;51771;51.068;-1.780;2022-08-24T16:34:15;1.13;;;0.70;;
65182;SDS011;51771;51.068;-1.780;2022-08-24T16:36:41;0.40;;;0.40;;
65182;SDS011;51771;51.068;-1.780;2022-08-24T16:39:06;0.47;;;0.40;;
65182;SDS011;51771;51.068;-1.780;2022-08-24T16:41:34;1.27;;;0.77;;
65182;SDS011;51771;51.068;-1.780;2022-08-24T16:44:02;3.67;;;0.60;;
65182;SDS011;51771;51.068;-1.780;2022-08-24T16:46:28;0.90;;;0.47;;
65182;SDS011;51771;51.068;-1.780;2022-08-24T16:48:53;0.67;;;0.67;;
65182;SDS011;51771;51.068;-1.780;2022-08-24T16:51:18;1.75;;;0.90;;
65182;SDS011;51771;51.068;-1.780;2022-08-24T16:53:44;2.80;;;0.60;;
65182;SDS011;51771;51.068;-1.780;2022-08-24T16:56:09;1.67;;;0.47;;
65182;SDS011;51771;51.068;-1.780;2022-08-24T16:58:34;8.82;;;0.60;;
65182;SDS011;51771;51.068;-1.780;2022-08-24T17:01:01;0.50;;;0.50;;
65182;SDS011;51771;51.068;-1.780;2022-08-24T17:03:26;0.55;;;0.55;;
65182;SDS011;51771;51.068;-1.780;2022-08-24T17:05:52;4.00;;;0.77;;
65182;SDS011;51771;51.068;-1.780;2022-08-24T17:08:17;1.50;;;0.40;;
65182;SDS011;51771;51.068;-1.780;2022-08-24T17:10:42;0.53;;;0.53;;
65182;SDS011;51771;51.068;-1.780;2022-08-24T17:13:07;1.13;;;0.73;;
65182;SDS011;51771;51.068;-1.780;2022-08-24T17:15:34;2.33;;;0.60;;
65182;SDS011;51771;51.068;-1.780;2022-08-24T17:18:00;0.65;;;0.55;;
65182;SDS011;51771;51.068;-1.780;2022-08-24T17:20:27;1.00;;;0.68;;
65182;SDS011;51771;51.068;-1.780;2022-08-24T17:22:53;0.38;;;0.38;;
65182;SDS011;51771;51.068;-1.780;2022-08-24T17:25:18;0.47;;;0.47;;
65182;SDS011;51771;51.068;-1.780;2022-08-24T17:27:43;0.30;;;0.30;;
65182;SDS011;51771;51.068;-1.780;2022-08-24T17:30:09;2.05;;;1.05;;
65182;SDS011;51771;51.068;-1.780;2022-08-24T17:32:34;0.70;;;0.40;;
65182;SDS011;51771;51.068;-1.780;2022-08-24T17:35:00;4.90;;;0.50;;
65182;SDS011;51771;51.068;-1.780;2022-08-24T17:37:27;5.15;;;0.85;;
65182;SDS011;51771;51.068;-1.780;2022-08-24T17:39:53;2.65;;;0.40;;
65182;SDS011;51771;51.068;-1.780;2022-08-24T17:42:19;0.30;;;0.30;;
65182;SDS011;51771;51.068;-1.780;2022-08-24T17:44:44;0.40;;;0.40;;
65182;SDS011;51771;51.068;-1.780;2022-08-24T17:47:09;3.67;;;0.53;;
65182;SDS011;51771;51.068;-1.780;2022-08-24T17:49:36;4.03;;;0.70;;
65182;SDS011;51771;51.068;-1.780;2022-08-24T17:52:02;0.10;;;0.10;;
65182;SDS011;51771;51.068;-1.780;2022-08-24T17:54:27;2.80;;;0.60;;
65182;SDS011;51771;51.068;-1.780;2022-08-24T17:56:53;0.28;;;0.28;;
65182;SDS011;51771;51.068;-1.780;2022-08-24T17:59:21;0.80;;;0.40;;
65182;SDS011;51771;51.068;-1.780;2022-08-24T18:02:08;0.47;;;0.25;;
65182;SDS011;51771;51.068;-1.780;2022-08-24T18:04:37;2.17;;;0.60;;
65182;SDS011;51771;51.068;-1.780;2022-08-24T18:07:07;0.30;;;0.30;;
65182;SDS011;51771;51.068;-1.780;2022-08-24T18:09:43;15.82;;;0.65;;
65182;SDS011;51771;51.068;-1.780;2022-08-24T18:12:16;0.73;;;0.40;;
65182;SDS011;51771;51.068;-1.780;2022-08-24T18:14:42;0.70;;;0.40;;
65182;SDS011;51771;51.068;-1.780;2022-08-24T18:17:09;2.55;;;0.70;;
65182;SDS011;51771;51.068;-1.780;2022-08-24T18:19:35;0.47;;;0.47;;
65182;SDS011;51771;51.068;-1.780;2022-08-24T18:22:01;0.50;;;0.38;;
65182;SDS011;51771;51.068;-1.780;2022-08-24T18:24:26;0.40;;;0.40;;
65182;SDS011;51771;51.068;-1.780;2022-08-24T18:26:56;3.60;;;0.60;;
65182;SDS011;51771;51.068;-1.780;2022-08-24T18:29:21;2.47;;;0.50;;
65182;SDS011;51771;51.068;-1.780;2022-08-24T18:31:47;0.43;;;0.43;;
65182;SDS011;51771;51.068;-1.780;2022-08-24T18:34:22;1.65;;;0.60;;
65182;SDS011;51771;51.068;-1.780;2022-08-24T18:36:48;0.50;;;0.50;;
65182;SDS011;51771;51.068;-1.780;2022-08-24T18:39:13;1.30;;;0.60;;
65182;SDS011;51771;51.068;-1.780;2022-08-24T18:41:39;0.40;;;0.40;;
65182;SDS011;51771;51.068;-1.780;2022-08-24T18:44:05;2.47;;;0.70;;
65182;SDS011;51771;51.068;-1.780;2022-08-24T18:46:30;0.77;;;0.57;;
65182;SDS011;51771;51.068;-1.780;2022-08-24T18:48:56;0.98;;;0.65;;
65182;SDS011;51771;51.068;-1.780;2022-08-24T18:51:22;4.60;;;0.73;;
65182;SDS011;51771;51.068;-1.780;2022-08-24T18:53:48;10.98;;;1.00;;
65182;SDS011;51771;51.068;-1.780;2022-08-24T18:56:14;8.65;;;0.90;;
65182;SDS011;51771;51.068;-1.780;2022-08-24T18:58:40;0.63;;;0.63;;
65182;SDS011;51771;51.068;-1.780;2022-08-24T19:01:05;1.38;;;0.55;;
65182;SDS011;51771;51.068;-1.780;2022-08-24T19:03:30;1.23;;;0.57;;
65182;SDS011;51771;51.068;-1.780;2022-08-24T19:05:56;5.88;;;1.17;;
65182;SDS011;51771;51.068;-1.780;2022-08-24T19:08:21;5.60;;;0.50;;
65182;SDS011;51771;51.068;-1.780;2022-08-24T19:10:47;0.65;;;0.65;;
65182;SDS011;51771;51.068;-1.780;2022-08-24T19:13:12;0.57;;;0.57;;
65182;SDS011;51771;51.068;-1.780;2022-08-24T19:15:42;1.48;;;1.10;;
65182;SDS011;51771;51.068;-1.780;2022-08-24T19:18:10;3.08;;;0.88;;
65182;SDS011;51771;51.068;-1.780;2022-08-24T19:20:37;5.70;;;1.13;;
65182;SDS011;51771;51.068;-1.780;2022-08-24T19:23:07;1.42;;;1.00;;
65182;SDS011;51771;51.068;-1.780;2022-08-24T19:25:34;0.95;;;0.80;;
65182;SDS011;51771;51.068;-1.780;2022-08-24T19:28:00;8.45;;;1.08;;
65182;SDS011;51771;51.068;-1.780;2022-08-24T19:30:25;1.60;;;1.20;;
65182;SDS011;51771;51.068;-1.780;2022-08-24T19:32:52;10.35;;;1.00;;
65182;SDS011;51771;51.068;-1.780;2022-08-24T19:35:17;6.78;;;0.80;;
65182;SDS011;51771;51.068;-1.780;2022-08-24T19:37:43;3.63;;;1.17;;
65182;SDS011;51771;51.068;-1.780;2022-08-24T19:40:09;9.88;;;1.40;;
65182;SDS011;51771;51.068;-1.780;2022-08-24T19:42:34;1.00;;;0.80;;
65182;SDS011;51771;51.068;-1.780;2022-08-24T19:45:00;13.48;;;1.08;;
65182;SDS011;51771;51.068;-1.780;2022-08-24T19:47:44;1.70;;;1.23;;
65182;SDS011;51771;51.068;-1.780;2022-08-24T19:50:09;1.75;;;1.05;;
65182;SDS011;51771;51.068;-1.780;2022-08-24T19:52:34;2.25;;;1.00;;
65182;SDS011;51771;51.068;-1.780;2022-08-24T19:55:00;1.15;;;1.05;;
65182;SDS011;51771;51.068;-1.780;2022-08-24T19:57:33;1.38;;;1.27;;
65182;SDS011;51771;51.068;-1.780;2022-08-24T20:00:02;3.97;;;1.80;;
65182;SDS011;51771;51.068;-1.780;2022-08-24T20:02:28;1.10;;;0.88;;
65182;SDS011;51771;51.068;-1.780;2022-08-24T20:04:53;9.90;;;0.85;;
65182;SDS011;51771;51.068;-1.780;2022-08-24T20:07:18;13.47;;;1.03;;
65182;SDS011;51771;51.068;-1.780;2022-08-24T20:09:44;5.10;;;0.80;;
65182;SDS011;51771;51.068;-1.780;2022-08-24T20:12:10;2.60;;;0.85;;
65182;SDS011;51771;51.068;-1.780;2022-08-24T20:14:35;6.95;;;1.02;;
65182;SDS011;51771;51.068;-1.780;2022-08-24T20:17:00;3.00;;;0.77;;
65182;SDS011;51771;51.068;-1.780;2022-08-24T20:19:27;3.90;;;0.95;;
65182;SDS011;51771;51.068;-1.780;2022-08-24T20:21:52;2.00;;;1.13;;
65182;SDS011;51771;51.068;-1.780;2022-08-24T20:24:17;2.33;;;1.13;;
65182;SDS011;51771;51.068;-1.780;2022-08-24T20:26:43;15.60;;;1.08;;
65182;SDS011;51771;51.068;-1.780;2022-08-24T20:29:09;4.50;;;1.10;;
65182;SDS011;51771;51.068;-1.780;2022-08-24T20:31:35;1.20;;;1.10;;
65182;SDS011;51771;51.068;-1.780;2022-08-24T20:34:02;2.05;;;1.00;;
65182;SDS011;51771;51.068;-1.780;2022-08-24T20:36:31;8.10;;;1.05;;
65182;SDS011;51771;51.068;-1.780;2022-08-24T20:38:58;7.93;;;1.30;;
65182;SDS011;51771;51.068;-1.780;2022-08-24T20:41:24;4.30;;;1.25;;
65182;SDS011;51771;51.068;-1.780;2022-08-24T20:43:50;4.15;;;1.48;;
65182;SDS011;51771;51.068;-1.780;2022-08-24T20:46:16;10.32;;;1.50;;
65182;SDS011;51771;51.068;-1.780;2022-08-24T20:48:41;2.47;;;1.20;;
65182;SDS011;51771;51.068;-1.780;2022-08-24T20:51:06;4.78;;;1.60;;
65182;SDS011;51771;51.068;-1.780;2022-08-24T20:53:32;2.10;;;1.43;;
65182;SDS011;51771;51.068;-1.780;2022-08-24T20:55:57;1.70;;;1.10;;
65182;SDS011;51771;51.068;-1.780;2022-08-24T20:58:25;4.03;;;1.58;;
65182;SDS011;51771;51.068;-1.780;2022-08-24T21:00:50;5.07;;;1.67;;
65182;SDS011;51771;51.068;-1.780;2022-08-24T21:03:15;2.23;;;1.23;;
65182;SDS011;51771;51.068;-1.780;2022-08-24T21:05:43;3.13;;;1.00;;
65182;SDS011;51771;51.068;-1.780;2022-08-24T21:08:09;1.85;;;1.08;;
65182;SDS011;51771;51.068;-1.780;2022-08-24T21:10:34;5.47;;;1.85;;
65182;SDS011;51771;51.068;-1.780;2022-08-24T21:13:00;7.78;;;0.98;;
65182;SDS011;51771;51.068;-1.780;2022-08-24T21:15:25;10.80;;;1.80;;
65182;SDS011;51771;51.068;-1.780;2022-08-24T21:17:50;4.20;;;1.10;;
65182;SDS011;51771;51.068;-1.780;2022-08-24T21:20:16;1.63;;;0.68;;
65182;SDS011;51771;51.068;-1.780;2022-08-24T21:22:45;3.65;;;1.50;;
65182;SDS011;51771;51.068;-1.780;2022-08-24T21:25:10;5.75;;;1.65;;
65182;SDS011;51771;51.068;-1.780;2022-08-24T21:27:36;9.98;;;1.73;;
